Time;durP1;ratioP1;P1;durP2;ratioP2;P2;SDS_P1;SDS_P2;PMS_P1;PMS_P2;Temp;Humidity;BMP_temperature;BMP_pressure;BME280_temperature;BME280_humidity;BME280_pressure;Samples;Min_cycle;Max_cycle;Signal;HPM_P1;HPM_P2
2020/12/29 00:01:32;;;;;;;8.07;6.30;;;;;;;1.62;80.52;94759.56;4970537;28;20696;-81
2020/12/29 00:03:58;;;;;;;9.87;7.37;;;;;;;1.69;80.63;94773.72;4975432;28;20226;-81
2020/12/29 00:06:24;;;;;;;9.80;7.87;;;;;;;1.70;81.09;94765.06;4971242;28;20240;-81
2020/12/29 00:08:51;;;;;;;7.67;5.00;;;;;;;1.70;81.88;94770.22;4973136;28;20222;-81
2020/12/29 00:11:18;;;;;;;8.40;5.70;;;;;;;1.78;81.44;94763.81;4972661;28;20303;-82
2020/12/29 00:13:44;;;;;;;9.03;6.10;;;;;;;1.68;83.36;94761.75;4973190;28;20216;-82
2020/12/29 00:16:10;;;;;;;9.43;6.47;;;;;;;1.69;83.34;94754.88;4972429;28;20736;-81
2020/12/29 00:18:36;;;;;;;9.07;6.33;;;;;;;1.69;84.18;94749.75;4972074;28;20999;-82
2020/12/29 00:21:03;;;;;;;11.07;7.60;;;;;;;1.77;83.75;94745.00;4973336;28;20545;-81
2020/12/29 00:23:29;;;;;;;12.33;7.20;;;;;;;1.84;83.83;94730.88;4974139;28;20846;-82
2020/12/29 00:25:57;;;;;;;13.00;7.13;;;;;;;1.90;83.25;94716.84;4972042;28;20240;-81
2020/12/29 00:28:23;;;;;;;11.10;7.47;;;;;;;1.93;83.21;94724.38;4974803;28;20236;-82
2020/12/29 00:30:49;;;;;;;9.87;6.73;;;;;;;1.94;83.38;94731.16;4974075;28;20216;-81
2020/12/29 00:33:16;;;;;;;10.20;6.60;;;;;;;1.98;83.26;94724.91;4974450;28;20216;-81
2020/12/29 00:35:42;;;;;;;10.20;6.33;;;;;;;2.01;83.15;94723.91;4970529;28;20258;-83
2020/12/29 00:38:08;;;;;;;9.47;6.30;;;;;;;2.07;83.34;94718.41;4972244;28;20222;-82
2020/12/29 00:40:34;;;;;;;7.97;5.93;;;;;;;2.10;82.98;94724.19;4973994;28;20657;-82
2020/12/29 00:43:01;;;;;;;10.73;6.70;;;;;;;2.14;82.91;94726.56;4975224;28;20222;-83
2020/12/29 00:45:28;;;;;;;11.07;6.70;;;;;;;2.18;82.76;94726.28;4972266;28;20654;-82
2020/12/29 00:47:54;;;;;;;10.97;6.13;;;;;;;2.22;82.62;94724.34;4974112;28;20756;-80
2020/12/29 00:50:20;;;;;;;7.67;5.83;;;;;;;2.23;82.62;94726.03;4974769;28;20229;-81
2020/12/29 00:52:46;;;;;;;10.97;7.27;;;;;;;2.23;82.60;94718.31;4974600;28;20637;-81
2020/12/29 00:55:13;;;;;;;11.20;6.77;;;;;;;2.24;82.44;94710.50;4972807;28;20669;-82
2020/12/29 00:57:39;;;;;;;10.83;6.83;;;;;;;2.20;82.34;94713.34;4972686;28;20224;-83
2020/12/29 01:00:06;;;;;;;11.73;7.17;;;;;;;2.14;82.55;94716.28;4974441;28;20270;-83
2020/12/29 01:02:32;;;;;;;12.50;7.60;;;;;;;2.12;82.35;94712.06;4975224;28;20293;-83
2020/12/29 01:04:58;;;;;;;11.33;6.87;;;;;;;2.09;82.33;94725.09;4973733;28;20240;-82
2020/12/29 01:07:25;;;;;;;10.00;7.37;;;;;;;2.06;82.38;94721.88;4972153;28;20621;-83
2020/12/29 01:09:51;;;;;;;10.20;7.23;;;;;;;2.02;82.43;94726.41;4974617;28;20278;-81
2020/12/29 01:12:17;;;;;;;10.67;7.27;;;;;;;2.00;82.38;94724.81;4971748;28;20216;-82
2020/12/29 01:14:44;;;;;;;10.27;6.63;;;;;;;2.00;82.54;94723.06;4973136;28;20536;-81
2020/12/29 01:17:12;;;;;;;10.70;7.47;;;;;;;1.99;82.47;94730.91;4973919;28;20870;-82
2020/12/29 01:19:39;;;;;;;10.43;6.87;;;;;;;1.99;82.45;94721.44;4973466;28;20219;-81
2020/12/29 01:22:05;;;;;;;11.40;7.30;;;;;;;2.00;82.20;94728.22;4974474;28;20743;-81
2020/12/29 01:24:31;;;;;;;11.87;7.67;;;;;;;1.99;82.34;94738.59;4973372;28;20692;-82
2020/12/29 01:26:57;;;;;;;13.83;6.87;;;;;;;1.99;82.60;94742.00;4973923;28;20661;-81
2020/12/29 01:29:24;;;;;;;12.30;8.30;;;;;;;2.02;82.13;94736.69;4972418;28;20213;-82
2020/12/29 01:31:50;;;;;;;12.33;7.30;;;;;;;2.02;82.63;94730.69;4973717;28;20224;-81
2020/12/29 01:34:17;;;;;;;11.47;7.23;;;;;;;2.04;82.29;94724.56;4972484;28;20226;-81
2020/12/29 01:36:44;;;;;;;10.50;7.47;;;;;;;2.07;82.18;94724.34;4972813;28;20227;-81
2020/12/29 01:39:10;;;;;;;10.93;7.20;;;;;;;2.08;82.11;94726.03;4972370;28;20788;-81
2020/12/29 01:41:37;;;;;;;12.00;6.97;;;;;;;2.06;82.19;94733.00;4972032;28;20729;-82
2020/12/29 01:44:13;;;;;;;12.77;7.40;;;;;;;2.07;82.24;94732.06;4971839;28;20216;-81
2020/12/29 01:46:40;;;;;;;8.83;6.63;;;;;;;2.11;82.15;94736.13;4974912;28;20219;-82
2020/12/29 01:49:08;;;;;;;8.83;6.50;;;;;;;2.15;82.13;94741.91;4972532;28;20247;-81
2020/12/29 01:51:35;;;;;;;10.30;6.53;;;;;;;2.18;82.02;94740.91;4973202;28;20314;-81
2020/12/29 01:54:01;;;;;;;8.30;5.57;;;;;;;2.14;82.12;94729.16;4972613;28;20590;-83
2020/12/29 01:56:28;;;;;;;9.43;5.77;;;;;;;2.21;82.02;94738.97;4973374;28;20247;-83
2020/12/29 01:58:54;;;;;;;9.23;5.67;;;;;;;2.24;81.96;94745.66;4973966;28;20231;-83
2020/12/29 02:01:20;;;;;;;7.80;5.30;;;;;;;2.26;81.78;94739.53;4972629;28;20217;-82
2020/12/29 02:03:47;;;;;;;11.30;6.83;;;;;;;2.28;81.89;94736.88;4972835;28;20215;-81
2020/12/29 02:06:13;;;;;;;10.33;6.03;;;;;;;2.31;81.75;94741.81;4972354;28;20467;-82
2020/12/29 02:08:40;;;;;;;7.37;5.37;;;;;;;2.32;81.86;94746.03;4973777;28;20240;-82
2020/12/29 02:11:06;;;;;;;9.77;6.10;;;;;;;2.29;81.72;94753.94;4973436;28;20220;-82
2020/12/29 02:13:39;;;;;;;6.57;5.03;;;;;;;2.29;81.81;94757.31;4971781;28;20220;-83
2020/12/29 02:16:05;;;;;;;5.87;3.90;;;;;;;2.27;81.74;94756.59;4973482;28;20258;-82
2020/12/29 02:18:32;;;;;;;4.37;3.60;;;;;;;2.28;81.63;94760.00;4973788;28;20212;-84
2020/12/29 02:20:58;;;;;;;4.63;3.10;;;;;;;2.26;81.61;94760.09;4973804;28;20840;-81
2020/12/29 02:23:25;;;;;;;4.87;4.00;;;;;;;2.29;81.63;94756.50;4972759;28;20658;-83
2020/12/29 02:25:51;;;;;;;5.37;4.27;;;;;;;2.31;81.63;94762.38;4971454;28;20259;-83
2020/12/29 02:28:18;;;;;;;5.17;3.47;;;;;;;2.25;82.61;94762.75;4970188;28;20236;-83
2020/12/29 02:30:44;;;;;;;4.20;3.33;;;;;;;2.12;83.77;94767.78;4974064;28;20244;-81
2020/12/29 02:33:10;;;;;;;5.93;4.50;;;;;;;2.07;84.39;94775.75;4973049;28;20228;-80
2020/12/29 02:35:37;;;;;;;3.97;2.93;;;;;;;2.06;84.64;94774.13;4971166;28;20240;-81
2020/12/29 02:38:03;;;;;;;5.83;4.13;;;;;;;2.02;85.15;94777.81;4973671;28;20208;-82
2020/12/29 02:40:30;;;;;;;6.50;4.50;;;;;;;2.02;85.39;94775.22;4973032;28;20225;-83
2020/12/29 02:42:56;;;;;;;4.67;2.93;;;;;;;2.04;85.26;94778.53;4982013;28;20222;-82
2020/12/29 02:45:22;;;;;;;6.60;4.20;;;;;;;2.05;85.51;94767.31;4971790;28;20614;-82
2020/12/29 02:47:49;;;;;;;6.03;4.63;;;;;;;2.12;84.80;94770.38;4972656;28;20250;-81
2020/12/29 02:50:15;;;;;;;5.97;4.63;;;;;;;2.16;85.09;94771.84;4972229;28;20211;-83
2020/12/29 02:52:41;;;;;;;6.70;4.60;;;;;;;2.18;84.88;94767.41;4973046;28;20218;-83
2020/12/29 02:55:08;;;;;;;7.23;4.17;;;;;;;2.22;85.28;94773.22;4973352;28;20240;-82
2020/12/29 02:57:35;;;;;;;8.50;5.77;;;;;;;2.27;84.83;94771.19;4976099;28;20240;-82
2020/12/29 03:00:01;;;;;;;5.03;3.67;;;;;;;2.25;84.94;94778.19;4974976;28;20657;-82
2020/12/29 03:02:27;;;;;;;6.03;3.63;;;;;;;2.24;85.03;94776.50;4975297;28;20219;-82
2020/12/29 03:04:53;;;;;;;4.67;2.97;;;;;;;2.25;84.99;94768.72;4974369;28;20240;-81
2020/12/29 03:07:20;;;;;;;4.93;3.50;;;;;;;2.23;85.08;94765.41;4973173;28;20245;-81
2020/12/29 03:09:46;;;;;;;5.03;3.23;;;;;;;2.28;85.16;94773.69;4976504;28;20220;-81
2020/12/29 03:12:12;;;;;;;3.73;2.90;;;;;;;2.35;84.91;94774.13;4976111;28;20223;-82
2020/12/29 03:14:39;;;;;;;4.07;2.80;;;;;;;2.36;85.00;94783.50;4975009;28;20252;-82
2020/12/29 03:17:05;;;;;;;3.33;2.50;;;;;;;2.39;84.89;94775.63;4975325;28;20319;-82
2020/12/29 03:19:32;;;;;;;3.07;2.00;;;;;;;2.34;85.26;94777.63;4975867;28;20541;-82
2020/12/29 03:21:58;;;;;;;3.70;2.57;;;;;;;2.45;84.63;94785.53;4976593;28;20233;-83
2020/12/29 03:24:24;;;;;;;3.10;2.33;;;;;;;2.46;84.58;94784.63;4973986;28;20272;-83
2020/12/29 03:26:50;;;;;;;3.10;2.17;;;;;;;2.51;84.38;94784.31;4974870;28;20228;-82
2020/12/29 03:29:16;;;;;;;3.00;1.80;;;;;;;2.53;84.58;94797.09;4973976;28;20226;-83
2020/12/29 03:31:45;;;;;;;1.97;1.13;;;;;;;2.48;84.83;94795.63;4974979;28;20212;-83
2020/12/29 03:34:15;;;;;;;2.63;1.80;;;;;;;2.61;84.52;94788.00;4975307;28;20720;-81
2020/12/29 03:36:41;;;;;;;2.70;1.77;;;;;;;2.64;84.76;94795.50;4977893;28;20216;-84
2020/12/29 03:39:08;;;;;;;3.00;1.60;;;;;;;2.61;84.72;94793.16;4975692;28;20565;-83
2020/12/29 03:41:34;;;;;;;2.67;1.73;;;;;;;2.64;84.98;94794.69;4977131;28;20239;-83
2020/12/29 03:44:00;;;;;;;3.10;1.57;;;;;;;2.66;84.88;94803.13;4974021;28;20235;-82
2020/12/29 03:46:26;;;;;;;2.93;1.97;;;;;;;2.66;84.97;94782.56;4973676;28;20252;-82
2020/12/29 03:48:53;;;;;;;1.33;1.03;;;;;;;2.65;85.31;94798.94;4974834;28;20458;-82
2020/12/29 03:51:20;;;;;;;2.40;1.73;;;;;;;2.71;85.14;94801.13;4974331;28;20433;-82
2020/12/29 03:53:46;;;;;;;2.37;1.60;;;;;;;2.75;85.02;94802.56;4975458;28;20368;-81
2020/12/29 03:56:12;;;;;;;2.07;1.40;;;;;;;2.79;84.75;94803.22;4974880;28;20240;-82
2020/12/29 03:58:38;;;;;;;2.00;1.67;;;;;;;2.82;84.65;94805.63;4973801;28;20212;-84
2020/12/29 04:01:05;;;;;;;2.87;1.80;;;;;;;2.86;84.44;94810.47;4973745;28;20224;-82
2020/12/29 04:03:31;;;;;;;4.10;1.63;;;;;;;2.91;84.50;94817.09;4976225;28;20221;-81
2020/12/29 04:05:58;;;;;;;3.00;1.30;;;;;;;2.95;84.31;94821.13;4974211;28;20421;-82
2020/12/29 04:08:24;;;;;;;4.73;1.60;;;;;;;2.97;84.15;94822.69;4973821;28;20236;-81
2020/12/29 04:10:50;;;;;;;3.00;1.40;;;;;;;3.00;84.08;94819.09;4975584;28;20934;-82
2020/12/29 04:13:16;;;;;;;2.07;1.60;;;;;;;2.99;83.75;94807.13;4974891;28;20297;-83
2020/12/29 04:15:43;;;;;;;3.87;1.60;;;;;;;3.07;83.65;94833.25;4974401;28;20702;-83
2020/12/29 04:18:09;;;;;;;2.33;1.40;;;;;;;3.07;83.73;94822.94;4973001;28;20254;-83
2020/12/29 04:20:35;;;;;;;2.20;1.30;;;;;;;3.07;83.46;94822.94;4973715;28;20239;-83
2020/12/29 04:23:02;;;;;;;2.40;1.20;;;;;;;3.09;83.56;94836.56;4974322;28;20775;-82
2020/12/29 04:25:28;;;;;;;1.50;1.37;;;;;;;3.10;83.48;94833.03;4973383;28;20652;-83
2020/12/29 04:27:55;;;;;;;2.83;1.20;;;;;;;3.15;83.24;94836.16;4974404;28;20785;-83
2020/12/29 04:30:21;;;;;;;3.53;1.27;;;;;;;3.14;83.02;94833.69;4973161;28;20698;-81
2020/12/29 04:32:47;;;;;;;2.77;1.10;;;;;;;3.13;83.09;94843.16;4974614;28;20719;-81
2020/12/29 04:35:14;;;;;;;2.00;1.00;;;;;;;3.13;82.72;94842.34;4974904;28;20240;-83
2020/12/29 04:37:41;;;;;;;3.90;1.00;;;;;;;3.16;82.67;94844.72;4975185;28;20212;-82
2020/12/29 04:40:08;;;;;;;2.03;1.07;;;;;;;3.17;82.93;94849.75;4973328;28;20220;-83
2020/12/29 04:42:35;;;;;;;1.23;1.07;;;;;;;3.19;82.50;94852.25;4975042;28;20436;-82
2020/12/29 04:45:01;;;;;;;1.93;1.00;;;;;;;3.22;82.54;94855.47;4970012;28;20359;-80
2020/12/29 04:47:28;;;;;;;2.00;1.03;;;;;;;3.23;82.29;94864.81;4973291;28;20243;-81
2020/12/29 04:49:55;;;;;;;0.97;0.77;;;;;;;3.19;81.99;94863.38;4974553;28;20216;-82
2020/12/29 04:52:22;;;;;;;1.60;0.83;;;;;;;3.20;82.10;94865.03;4973736;28;20312;-82
2020/12/29 04:54:51;;;;;;;1.23;0.83;;;;;;;3.22;81.72;94868.34;4972633;28;20234;-81
2020/12/29 04:57:19;;;;;;;2.23;0.80;;;;;;;3.20;81.82;94869.38;4974435;28;20220;-81
2020/12/29 04:59:45;;;;;;;2.47;1.07;;;;;;;3.24;81.89;94876.78;4974873;28;20220;-82
2020/12/29 05:02:11;;;;;;;3.07;0.73;;;;;;;3.20;81.61;94870.19;4973883;28;20231;-81
2020/12/29 05:04:38;;;;;;;3.93;0.83;;;;;;;3.20;81.54;94877.91;4972386;28;20236;-83
2020/12/29 05:07:04;;;;;;;3.27;1.07;;;;;;;3.26;81.17;94877.53;4971324;28;20215;-81
2020/12/29 05:09:32;;;;;;;3.03;0.90;;;;;;;3.25;81.03;94881.03;4973406;28;20222;-83
2020/12/29 05:11:58;;;;;;;1.67;0.70;;;;;;;3.27;80.95;94876.63;4973882;28;20275;-82
2020/12/29 05:14:28;;;;;;;1.33;0.77;;;;;;;3.27;80.72;94875.78;4971912;28;20447;-82
2020/12/29 05:16:54;;;;;;;4.00;1.03;;;;;;;3.25;81.06;94883.63;4974400;28;20271;-80
2020/12/29 05:19:21;;;;;;;1.83;1.00;;;;;;;3.22;81.04;94893.28;4972489;28;20248;-82
2020/12/29 05:21:48;;;;;;;4.13;0.80;;;;;;;3.22;80.84;94894.09;4974624;28;20685;-83
2020/12/29 05:24:15;;;;;;;3.03;0.90;;;;;;;3.21;80.79;94900.16;4972577;28;20281;-81
2020/12/29 05:26:42;;;;;;;0.60;0.60;;;;;;;3.18;80.80;94907.25;4972725;28;20231;-83
2020/12/29 05:29:12;;;;;;;1.00;0.43;;;;;;;3.13;80.86;94914.44;4974167;28;20258;-81
2020/12/29 05:31:39;;;;;;;1.23;0.70;;;;;;;3.19;80.35;94917.44;4975291;28;20219;-81
2020/12/29 05:34:06;;;;;;;2.17;0.60;;;;;;;3.18;80.38;94931.25;4972047;28;20624;-82
2020/12/29 05:36:36;;;;;;;0.87;0.70;;;;;;;3.18;80.08;94927.84;4972466;28;20717;-83
2020/12/29 05:39:07;;;;;;;3.27;0.80;;;;;;;3.12;80.46;94923.06;4973273;28;20216;-81
2020/12/29 05:41:38;;;;;;;0.80;0.40;;;;;;;3.08;80.28;94919.84;4974242;28;20517;-82
2020/12/29 05:44:06;;;;;;;1.93;0.83;;;;;;;3.14;80.24;94927.19;4972403;28;20307;-81
2020/12/29 05:46:32;;;;;;;0.80;0.60;;;;;;;3.14;80.38;94937.50;4972844;28;20239;-84
2020/12/29 05:49:00;;;;;;;1.60;0.63;;;;;;;3.11;80.12;94942.84;4973933;28;20261;-80
2020/12/29 05:51:26;;;;;;;2.13;0.77;;;;;;;3.11;79.84;94939.44;4974788;28;20522;-80
2020/12/29 05:53:59;;;;;;;1.27;0.70;;;;;;;3.06;79.95;94944.88;4973099;28;20604;-81
2020/12/29 05:56:27;;;;;;;2.27;0.90;;;;;;;3.11;79.87;94950.56;4972993;28;20244;-81
2020/12/29 05:58:54;;;;;;;1.87;0.60;;;;;;;3.12;79.49;94951.41;4974318;28;20240;-81
2020/12/29 06:01:20;;;;;;;6.00;1.10;;;;;;;3.17;79.57;94954.53;4969342;28;20761;-81
2020/12/29 06:03:49;;;;;;;1.87;1.10;;;;;;;3.18;79.60;94954.44;4965881;28;20212;-80
2020/12/29 06:06:16;;;;;;;1.33;1.00;;;;;;;3.23;79.42;94956.72;4975985;28;20240;-82
2020/12/29 06:08:42;;;;;;;2.03;1.10;;;;;;;3.25;79.30;94962.59;4976096;28;20236;-80
2020/12/29 06:11:13;;;;;;;2.57;0.73;;;;;;;3.26;79.07;94954.78;4976618;28;20216;-83
2020/12/29 06:13:39;;;;;;;1.53;0.80;;;;;;;3.28;78.91;94965.81;4977778;28;20220;-81
2020/12/29 06:16:06;;;;;;;1.67;0.90;;;;;;;3.37;78.70;94977.31;4975530;28;20239;-82
2020/12/29 06:18:36;;;;;;;1.57;0.97;;;;;;;3.43;78.24;94973.53;4975161;28;20299;-82
2020/12/29 06:21:04;;;;;;;3.03;0.50;;;;;;;3.42;78.46;94987.38;4977237;28;20212;-81
2020/12/29 06:23:37;;;;;;;2.40;0.67;;;;;;;3.46;77.84;94983.69;4977075;28;20220;-82
2020/12/29 06:26:04;;;;;;;0.80;0.40;;;;;;;3.50;77.75;94982.56;4976291;28;20244;-83
2020/12/29 06:28:32;;;;;;;1.67;0.60;;;;;;;3.53;77.56;94984.97;4978479;28;20236;-82
2020/12/29 06:31:00;;;;;;;1.90;0.63;;;;;;;3.59;77.68;94982.00;4980601;28;20219;-80
2020/12/29 06:33:31;;;;;;;1.27;0.80;;;;;;;3.60;77.47;94991.38;4978624;28;20220;-82
2020/12/29 06:35:58;;;;;;;0.97;0.60;;;;;;;3.59;77.36;94994.06;4980854;28;20331;-81
2020/12/29 06:38:26;;;;;;;2.87;0.50;;;;;;;3.58;77.03;94998.38;4979230;28;20271;-82
2020/12/29 06:40:55;;;;;;;0.93;0.70;;;;;;;3.60;76.82;95001.69;4981285;28;20216;-80
2020/12/29 06:43:21;;;;;;;1.47;0.60;;;;;;;3.66;76.45;95006.47;4978157;28;20216;-80
2020/12/29 06:45:48;;;;;;;1.10;0.50;;;;;;;3.65;76.72;95002.22;4980692;28;20247;-80
2020/12/29 06:48:17;;;;;;;1.43;0.70;;;;;;;3.74;76.39;95007.75;4979289;28;20244;-81
2020/12/29 06:50:44;;;;;;;0.90;0.40;;;;;;;3.77;76.72;95007.56;4980591;28;20693;-80
2020/12/29 06:53:15;;;;;;;1.03;0.53;;;;;;;3.79;75.93;95005.72;4979974;28;20220;-80
2020/12/29 06:55:46;;;;;;;0.97;0.37;;;;;;;3.81;76.12;95009.03;4981173;28;20611;-81
2020/12/29 06:58:29;;;;;;;1.43;0.87;;;;;;;3.78;75.96;95004.88;4980320;28;20223;-81
2020/12/29 07:01:18;;;;;;;1.73;0.70;;;;;;;3.79;75.94;95008.28;4980940;28;20221;-81
2020/12/29 07:03:44;;;;;;;1.00;0.40;;;;;;;3.78;76.41;95015.19;4982329;28;20220;-83
2020/12/29 07:06:10;;;;;;;1.20;0.50;;;;;;;3.76;75.94;95021.38;4975898;28;20765;-81
2020/12/29 07:08:37;;;;;;;2.90;0.70;;;;;;;3.77;76.24;95025.63;4980152;28;20322;-80
2020/12/29 07:11:15;;;;;;;2.30;0.40;;;;;;;3.74;75.66;95031.75;4980619;28;20221;-80
2020/12/29 07:13:45;;;;;;;0.90;0.57;;;;;;;3.75;75.54;95025.69;4980773;28;20223;-80
2020/12/29 07:16:12;;;;;;;1.90;0.30;;;;;;;3.77;75.59;95031.59;4980621;28;20258;-81
2020/12/29 07:18:43;;;;;;;2.03;0.50;;;;;;;3.75;75.20;95024.84;4978802;28;20219;-80
2020/12/29 07:21:23;;;;;;;0.80;0.40;;;;;;;3.78;75.00;95038.38;4979503;28;20216;-81
2020/12/29 07:23:51;;;;;;;3.60;0.63;;;;;;;3.83;74.79;95043.28;4980111;28;20216;-80
2020/12/29 07:26:19;;;;;;;0.50;0.27;;;;;;;3.80;74.90;95038.28;4980225;28;20247;-82
2020/12/29 07:28:46;;;;;;;3.20;0.50;;;;;;;3.87;75.24;95044.72;4980535;28;20246;-81
2020/12/29 07:31:15;;;;;;;2.07;0.30;;;;;;;3.92;74.83;95034.16;4980259;28;20611;-81
2020/12/29 07:33:48;;;;;;;1.63;0.50;;;;;;;3.95;74.63;95051.97;4979619;28;20227;-82
2020/12/29 07:36:17;;;;;;;4.20;0.50;;;;;;;3.94;74.87;95050.34;4979879;28;20880;-80
2020/12/29 07:38:46;;;;;;;1.60;0.47;;;;;;;3.95;74.40;95060.56;4979833;28;20208;-80
2020/12/29 07:41:13;;;;;;;1.47;0.60;;;;;;;4.01;74.21;95067.09;4981547;28;20220;-81
2020/12/29 07:43:39;;;;;;;0.60;0.30;;;;;;;4.02;73.89;95085.03;4978529;28;20220;-80
2020/12/29 07:46:06;;;;;;;2.00;0.50;;;;;;;4.10;73.74;95087.16;4980484;28;20242;-81
2020/12/29 07:48:33;;;;;;;1.00;0.30;;;;;;;4.17;73.49;95082.44;4980132;28;20243;-80
2020/12/29 07:51:00;;;;;;;1.17;0.37;;;;;;;4.21;73.20;95095.06;4980337;28;21168;-80
2020/12/29 07:53:26;;;;;;;3.13;0.33;;;;;;;4.25;73.41;95091.34;4977799;28;20244;-81
2020/12/29 07:55:53;;;;;;;0.80;0.30;;;;;;;4.26;73.01;95097.34;4979733;28;20764;-80
2020/12/29 07:58:19;;;;;;;2.00;0.83;;;;;;;4.31;73.26;95100.47;4979281;28;20218;-80
2020/12/29 08:00:45;;;;;;;2.50;0.60;;;;;;;4.36;73.18;95103.59;4980330;28;20870;-80
2020/12/29 08:03:13;;;;;;;1.80;0.20;;;;;;;4.38;73.33;95116.41;4979636;28;20751;-82
2020/12/29 08:05:40;;;;;;;1.30;0.33;;;;;;;4.38;72.66;95101.72;4978017;28;20779;-80
2020/12/29 08:08:07;;;;;;;2.20;0.40;;;;;;;4.40;73.05;95107.63;4980409;28;20251;-82
2020/12/29 08:10:35;;;;;;;1.40;0.63;;;;;;;4.43;73.25;95115.19;4978755;28;20311;-81
2020/12/29 08:13:03;;;;;;;0.57;0.30;;;;;;;4.39;73.33;95113.72;4980120;28;20216;-80
2020/12/29 08:15:33;;;;;;;1.10;0.50;;;;;;;4.40;72.78;95125.69;4979025;28;20246;-80
2020/12/29 08:18:07;;;;;;;1.00;0.50;;;;;;;4.40;72.92;95125.69;4979089;28;20217;-80
2020/12/29 08:20:40;;;;;;;0.77;0.43;;;;;;;4.44;72.69;95132.31;4979521;28;20223;-82
2020/12/29 08:23:06;;;;;;;1.30;0.50;;;;;;;4.51;72.91;95137.09;4978983;28;20224;-83
2020/12/29 08:25:33;;;;;;;0.97;0.53;;;;;;;4.50;72.52;95135.44;4978216;28;20630;-80
2020/12/29 08:28:00;;;;;;;1.50;0.20;;;;;;;4.53;72.27;95145.56;4975840;28;20229;-81
2020/12/29 08:30:29;;;;;;;2.40;0.60;;;;;;;4.57;72.22;95142.69;4977461;28;20217;-82
2020/12/29 08:32:57;;;;;;;2.53;0.53;;;;;;;4.57;71.80;95159.94;4979425;28;20246;-83
2020/12/29 08:35:23;;;;;;;2.33;0.40;;;;;;;4.60;72.07;95157.16;4977686;28;21041;-82
2020/12/29 08:38:02;;;;;;;2.17;0.43;;;;;;;4.60;71.23;95162.34;4975087;28;20216;-80
2020/12/29 08:40:31;;;;;;;0.53;0.20;;;;;;;4.69;71.56;95166.91;4979595;28;20220;-81
2020/12/29 08:42:58;;;;;;;0.73;0.33;;;;;;;4.74;71.59;95180.38;4978175;28;20223;-81
2020/12/29 08:45:27;;;;;;;1.90;0.40;;;;;;;4.74;71.74;95167.47;4977681;28;20241;-81
2020/12/29 08:47:55;;;;;;;0.80;0.40;;;;;;;4.80;71.18;95172.22;4978681;28;20244;-81
2020/12/29 08:50:24;;;;;;;1.47;0.30;;;;;;;4.86;71.07;95177.94;4977726;28;20256;-80
2020/12/29 08:52:54;;;;;;;1.00;0.53;;;;;;;4.88;70.69;95176.09;4979534;28;20208;-80
2020/12/29 08:55:28;;;;;;;1.00;0.30;;;;;;;4.90;70.75;95205.22;4978327;28;20299;-80
2020/12/29 08:57:56;;;;;;;1.70;0.33;;;;;;;4.95;70.83;95216.09;4980529;28;20224;-80
2020/12/29 09:00:22;;;;;;;1.40;0.50;;;;;;;4.98;71.01;95244.28;4978241;28;20294;-82
2020/12/29 09:02:49;;;;;;;0.73;0.30;;;;;;;4.93;72.70;95247.19;4979709;28;20212;-80
2020/12/29 09:05:20;;;;;;;0.70;0.30;;;;;;;4.72;74.31;95249.31;4975728;28;20239;-80
2020/12/29 09:07:49;;;;;;;0.53;0.30;;;;;;;4.58;75.10;95264.84;4977857;28;20254;-79
2020/12/29 09:10:17;;;;;;;0.70;0.50;;;;;;;4.45;75.92;95277.66;4974127;28;21065;-81
2020/12/29 09:12:44;;;;;;;0.90;0.40;;;;;;;4.35;77.61;95279.97;4976848;28;20218;-81
2020/12/29 09:15:11;;;;;;;0.50;0.30;;;;;;;4.28;77.14;95285.56;4965969;28;20717;-78
2020/12/29 09:17:40;;;;;;;0.43;0.40;;;;;;;4.18;77.96;95300.78;4972730;28;20712;-78
2020/12/29 09:20:15;;;;;;;1.47;0.33;;;;;;;4.05;78.54;95301.50;4974177;28;20244;-81
2020/12/29 09:22:52;;;;;;;0.97;0.30;;;;;;;3.97;78.71;95324.31;4976522;28;20227;-79
2020/12/29 09:25:23;;;;;;;1.57;0.90;;;;;;;3.92;79.16;95323.75;4973891;28;20247;-81
2020/12/29 09:27:50;;;;;;;0.83;0.67;;;;;;;3.80;79.21;95327.84;4969875;28;20540;-80
2020/12/29 09:30:16;;;;;;;0.50;0.20;;;;;;;3.77;79.71;95347.84;4972260;28;20787;-81
2020/12/29 09:32:43;;;;;;;1.37;0.20;;;;;;;3.70;80.03;95352.50;4974606;28;20218;-79
2020/12/29 10:03:37;;;;;;;0.40;0.20;;;;;;;3.42;83.08;95422.78;5011843;23;20239;-82
2020/12/29 10:06:04;;;;;;;0.30;0.20;;;;;;;3.53;82.90;95425.59;5003356;28;20281;-82
2020/12/29 10:08:31;;;;;;;0.73;0.20;;;;;;;3.57;83.09;95439.97;5001354;28;20238;-83
2020/12/29 10:10:57;;;;;;;0.70;0.40;;;;;;;3.58;82.36;95440.81;5001484;28;20567;-81
2020/12/29 10:13:24;;;;;;;0.20;0.20;;;;;;;3.63;82.16;95434.47;5003375;28;20217;-82
2020/12/29 10:15:50;;;;;;;0.30;0.20;;;;;;;3.58;82.66;95448.53;5002786;28;20235;-83
2020/12/29 10:18:17;;;;;;;0.50;0.20;;;;;;;3.61;82.45;95454.34;5004190;28;20215;-82
2020/12/29 10:20:44;;;;;;;0.30;0.27;;;;;;;3.66;82.16;95442.06;5002034;28;20237;-80
2020/12/29 10:23:11;;;;;;;1.30;0.40;;;;;;;3.69;82.12;95451.34;5000305;28;20253;-81
2020/12/29 10:25:37;;;;;;;0.63;0.40;;;;;;;3.71;82.21;95451.28;4984507;28;20706;-81
2020/12/29 10:28:03;;;;;;;0.83;0.30;;;;;;;3.69;81.93;95466.00;5001210;28;20321;-82
2020/12/29 10:30:30;;;;;;;0.90;0.40;;;;;;;3.73;81.73;95470.06;5003328;28;20212;-81
2020/12/29 10:32:56;;;;;;;1.47;0.40;;;;;;;3.72;81.87;95476.16;5002427;28;20446;-80
2020/12/29 10:35:22;;;;;;;0.70;0.30;;;;;;;3.69;82.01;95464.25;5005116;28;20368;-82
2020/12/29 10:37:49;;;;;;;2.73;0.47;;;;;;;3.73;81.67;95475.22;5004092;28;20645;-81
2020/12/29 10:40:15;;;;;;;0.57;0.40;;;;;;;3.71;81.90;95471.91;4996929;28;20653;-82
2020/12/29 10:42:42;;;;;;;1.67;0.40;;;;;;;3.77;81.78;95481.91;4997750;28;20218;-80
2020/12/29 10:45:08;;;;;;;0.77;0.40;;;;;;;3.80;81.80;95486.88;4994450;28;20744;-83
2020/12/29 10:47:34;;;;;;;0.93;0.70;;;;;;;3.81;81.43;95494.53;5000515;28;20215;-83
2020/12/29 10:50:01;;;;;;;2.07;0.70;;;;;;;3.83;81.44;95491.88;4999990;28;20293;-82
2020/12/29 10:52:27;;;;;;;1.73;1.00;;;;;;;3.82;81.80;95495.34;4998974;28;20238;-81
2020/12/29 10:54:54;;;;;;;1.63;0.90;;;;;;;3.88;81.74;95496.75;4993907;28;20237;-82
2020/12/29 10:57:20;;;;;;;2.50;1.30;;;;;;;3.91;81.17;95510.31;4996117;28;20262;-80
2020/12/29 10:59:47;;;;;;;2.03;1.57;;;;;;;3.92;81.48;95512.00;4999530;28;20222;-81
2020/12/29 11:02:13;;;;;;;2.27;1.40;;;;;;;3.93;81.26;95505.91;4997331;28;20475;-83
2020/12/29 11:04:39;;;;;;;2.63;1.43;;;;;;;3.92;81.45;95512.00;4998714;28;20632;-80
2020/12/29 11:07:05;;;;;;;2.33;1.20;;;;;;;3.98;81.21;95516.81;4997219;28;20680;-82
2020/12/29 11:09:32;;;;;;;1.90;1.00;;;;;;;4.00;81.59;95516.72;4995624;28;20521;-81
2020/12/29 11:12:01;;;;;;;1.27;0.93;;;;;;;4.04;81.15;95521.66;5000169;28;20301;-83
2020/12/29 12:26:42;;;;;;;1.63;1.10;;;;;;;4.52;79.21;95644.63;5238411;23;20247;-81
2020/12/29 12:29:09;;;;;;;2.87;1.03;;;;;;;4.48;79.21;95653.47;4978997;28;20652;-81
2020/12/29 12:31:35;;;;;;;2.20;0.93;;;;;;;4.53;79.03;95652.31;4982273;28;20230;-83
2020/12/29 12:34:01;;;;;;;1.40;1.10;;;;;;;4.50;79.29;95656.81;4978783;28;20257;-80
2020/12/29 12:36:28;;;;;;;1.80;1.10;;;;;;;4.51;79.17;95669.63;4977979;28;20242;-82
2020/12/29 12:38:55;;;;;;;0.70;0.70;;;;;;;4.51;79.38;95668.81;4960985;28;20307;-81
2020/12/29 12:41:21;;;;;;;1.00;0.80;;;;;;;4.50;79.29;95678.28;4978940;28;20227;-81
2020/12/29 12:43:49;;;;;;;1.90;0.83;;;;;;;4.56;79.44;95682.31;4977906;28;20212;-83
2020/12/29 12:46:15;;;;;;;1.27;0.90;;;;;;;4.58;79.53;95685.63;4979600;28;20335;-82
2020/12/29 12:48:41;;;;;;;1.40;0.80;;;;;;;4.53;78.65;95701.34;4980178;28;20270;-83
2020/12/29 12:51:08;;;;;;;1.67;1.07;;;;;;;4.62;78.66;95695.69;4977536;28;20216;-81
2020/12/29 12:53:34;;;;;;;1.90;1.00;;;;;;;4.64;78.80;95693.03;4979218;28;20230;-82
2020/12/29 12:56:00;;;;;;;0.63;0.50;;;;;;;4.69;77.66;95688.47;4978941;28;20232;-81
2020/12/29 12:58:27;;;;;;;1.07;0.80;;;;;;;4.82;76.88;95710.09;4979877;28;20212;-80
2020/12/29 13:00:54;;;;;;;0.90;0.50;;;;;;;4.85;76.20;95713.44;4977417;28;20281;-80
2020/12/29 13:03:20;;;;;;;0.80;0.40;;;;;;;4.89;76.16;95713.19;4982491;28;20220;-81
2020/12/29 13:05:46;;;;;;;0.97;0.40;;;;;;;4.89;75.45;95730.41;4979890;28;20319;-82
2020/12/29 13:08:13;;;;;;;0.60;0.50;;;;;;;5.06;74.03;95732.91;4981217;28;20750;-83
2020/12/29 13:10:39;;;;;;;0.57;0.47;;;;;;;5.20;72.95;95727.81;4977744;28;20655;-80
2020/12/29 13:13:06;;;;;;;0.60;0.30;;;;;;;5.26;73.28;95731.00;4977921;28;20299;-80
2020/12/29 13:15:32;;;;;;;0.30;0.20;;;;;;;5.47;72.33;95729.75;4980231;28;20729;-81
2020/12/29 13:17:59;;;;;;;0.40;0.30;;;;;;;5.45;72.05;95734.19;4977900;28;20302;-82
2020/12/29 13:20:26;;;;;;;0.40;0.20;;;;;;;5.41;72.61;95748.22;4977744;28;20231;-83
2020/12/29 13:22:52;;;;;;;0.47;0.30;;;;;;;5.37;72.26;95757.06;4976952;28;20212;-80